createdAt,value
2018-09-04T00:04:39.338Z,24.50
2018-09-04T00:09:44.270Z,24.50
2018-09-04T00:14:49.259Z,24.40
2018-09-04T00:19:54.248Z,24.30
2018-09-04T00:24:59.106Z,24.20
2018-09-04T00:30:04.265Z,24.10
2018-09-04T00:35:09.179Z,24.10
2018-09-04T00:40:14.041Z,24.10
2018-09-04T00:45:18.997Z,24.00
2018-09-04T00:50:24.107Z,23.90
2018-09-04T00:55:29.187Z,23.90
2018-09-04T01:00:34.165Z,23.90
2018-09-04T01:05:38.953Z,23.80
2018-09-04T01:10:43.813Z,23.70
2018-09-04T01:15:49.016Z,23.50
2018-09-04T01:20:54.126Z,23.50
2018-09-04T01:25:58.988Z,23.50
2018-09-04T01:31:04.060Z,23.50
2018-09-04T01:36:08.865Z,23.70
2018-09-04T01:41:13.859Z,23.60
2018-09-04T01:46:18.886Z,23.40
2018-09-04T01:51:23.943Z,23.50
2018-09-04T01:56:29.020Z,23.50
2018-09-04T02:01:34.489Z,23.70
2018-09-04T02:06:39.441Z,23.70
2018-09-04T02:11:44.298Z,23.70
2018-09-04T02:16:49.312Z,23.80
2018-09-04T02:21:54.290Z,23.70
2018-09-04T02:26:59.244Z,23.80
2018-09-04T02:32:04.061Z,23.90
2018-09-04T02:37:09.077Z,23.90
2018-09-04T02:42:13.917Z,23.70
2018-09-04T02:47:18.812Z,23.70
2018-09-04T02:52:23.782Z,23.70
2018-09-04T02:57:28.852Z,23.40
2018-09-04T03:02:33.938Z,23.40
2018-09-04T03:07:38.868Z,23.40
2018-09-04T03:12:43.695Z,23.40
2018-09-04T03:17:48.739Z,23.30
2018-09-04T03:22:53.867Z,23.30
2018-09-04T03:27:58.757Z,23.20
2018-09-04T03:33:03.683Z,23.40
2018-09-04T03:38:08.880Z,23.30
2018-09-04T03:43:13.963Z,23.20
2018-09-04T03:48:18.913Z,23.10
2018-09-04T03:53:23.888Z,23.10
2018-09-04T03:58:28.774Z,23.10
2018-09-04T04:03:33.702Z,23.20
2018-09-04T04:08:38.712Z,23.20
2018-09-04T04:13:43.830Z,23.20
2018-09-04T04:18:48.825Z,23.30
2018-09-04T04:23:54.057Z,23.50
2018-09-04T04:28:59.283Z,23.40
2018-09-04T04:34:04.292Z,23.50
2018-09-04T04:39:10.223Z,23.50
2018-09-04T04:44:15.254Z,23.70
2018-09-04T04:49:20.483Z,23.80
2018-09-04T04:54:25.406Z,23.80
2018-09-04T04:59:30.541Z,23.80
2018-09-04T05:04:35.738Z,23.90
2018-09-04T05:09:40.816Z,24.10
2018-09-04T05:14:45.832Z,24.20
2018-09-04T05:19:50.790Z,24.10
2018-09-04T05:24:55.696Z,24.10
2018-09-04T05:30:01.690Z,24.10
2018-09-04T05:35:06.936Z,24.10
2018-09-04T05:40:12.349Z,24.00
2018-09-04T05:45:17.326Z,23.90
2018-09-04T05:50:22.362Z,24.00
2018-09-04T05:55:27.292Z,24.10
2018-09-04T06:00:35.447Z,24.10
2018-09-04T06:05:40.471Z,24.20
2018-09-04T06:10:45.451Z,24.50
2018-09-04T06:15:50.465Z,24.60
2018-09-04T06:20:55.728Z,24.80
2018-09-04T06:26:01.035Z,24.90
2018-09-04T06:31:06.014Z,24.80
2018-09-04T06:36:10.966Z,25.00
2018-09-04T06:41:15.998Z,25.20
2018-09-04T06:46:21.432Z,25.60
2018-09-04T06:51:26.368Z,25.70
2018-09-04T06:56:31.485Z,25.90
2018-09-04T07:01:36.453Z,26.20
2018-09-04T07:06:41.379Z,26.40
2018-09-04T07:11:46.439Z,26.20
2018-09-04T07:16:51.603Z,26.30
2018-09-04T07:21:56.791Z,26.70
2018-09-04T07:27:01.680Z,27.00
2018-09-04T07:32:06.619Z,27.30
2018-09-04T07:37:11.824Z,26.80
2018-09-04T07:42:16.840Z,26.90
2018-09-04T07:47:21.796Z,27.10
2018-09-04T07:52:26.635Z,27.40
2018-09-04T07:57:31.815Z,27.30
2018-09-04T08:02:36.784Z,27.40
2018-09-04T08:07:41.952Z,27.10
2018-09-04T08:12:46.916Z,27.60
2018-09-04T08:17:51.958Z,27.80
2018-09-04T08:22:57.064Z,27.90
2018-09-04T08:28:02.080Z,28.00
2018-09-04T08:33:07.046Z,28.10
2018-09-04T08:38:11.948Z,28.10
2018-09-04T08:43:17.009Z,28.00
2018-09-04T08:48:22.569Z,27.80
2018-09-04T08:53:27.529Z,27.90
2018-09-04T08:58:32.469Z,27.70
2018-09-04T09:03:37.520Z,27.70
2018-09-04T09:08:42.470Z,27.90
2018-09-04T09:13:47.487Z,27.80
2018-09-04T09:18:52.851Z,27.60
2018-09-04T09:23:57.825Z,27.90
2018-09-04T09:29:02.789Z,27.80
2018-09-04T09:34:07.732Z,28.00
2018-09-04T09:39:12.631Z,28.00
2018-09-04T09:44:17.594Z,28.10
2018-09-04T09:49:22.456Z,28.40
2018-09-04T09:54:27.580Z,28.60
2018-09-04T09:59:32.757Z,28.80
2018-09-04T10:04:37.724Z,28.60
2018-09-04T10:09:42.815Z,28.40
2018-09-04T10:14:47.787Z,28.30
2018-09-04T10:19:52.901Z,28.00
2018-09-04T10:24:57.883Z,28.10
2018-09-04T10:30:02.815Z,28.10
2018-09-04T10:35:07.754Z,28.10
2018-09-04T10:40:17.745Z,28.40
2018-09-04T10:45:27.753Z,28.30
2018-09-04T10:50:32.670Z,28.60
2018-09-04T10:55:37.600Z,28.70
2018-09-04T11:00:42.583Z,28.90
2018-09-04T11:05:47.824Z,29.00
2018-09-04T11:10:52.745Z,29.50
2018-09-04T11:15:57.760Z,29.80
2018-09-04T11:21:02.842Z,29.80
2018-09-04T11:26:07.833Z,29.80
2018-09-04T11:31:12.679Z,29.80
2018-09-04T11:36:17.656Z,29.90
2018-09-04T11:41:22.885Z,29.90
2018-09-04T11:46:27.742Z,29.90
2018-09-04T11:51:32.674Z,29.80
2018-09-04T11:56:41.394Z,30.10
2018-09-04T12:01:50.716Z,29.90
2018-09-04T12:06:55.785Z,30.10
2018-09-04T12:12:00.742Z,30.30
2018-09-04T12:17:09.069Z,30.80
2018-09-04T12:22:14.309Z,30.50
2018-09-04T12:27:20.640Z,30.50
2018-09-04T12:32:25.618Z,30.80
2018-09-04T12:37:30.514Z,31.20
2018-09-04T12:42:35.413Z,30.70
2018-09-04T12:47:40.397Z,30.80
2018-09-04T12:52:45.634Z,31.10
2018-09-04T12:57:50.709Z,31.30
2018-09-04T13:02:55.643Z,30.60
2018-09-04T13:08:00.654Z,30.40
2018-09-04T13:13:05.830Z,31.20
2018-09-04T13:18:10.728Z,30.70
2018-09-04T13:23:15.809Z,31.00
2018-09-04T13:28:20.941Z,31.60
2018-09-04T13:33:25.960Z,31.50
2018-09-04T13:38:30.883Z,32.00
2018-09-04T13:43:36.372Z,31.20
2018-09-04T13:48:41.897Z,31.50
2018-09-04T13:53:47.198Z,31.90
2018-09-04T13:58:52.535Z,31.90
2018-09-04T14:03:57.704Z,31.90
2018-09-04T14:09:05.474Z,32.00
2018-09-04T14:14:12.357Z,32.40
2018-09-04T14:19:17.673Z,32.20
2018-09-04T14:24:22.640Z,32.90
2018-09-04T14:34:34.571Z,32.40
2018-09-04T14:39:39.491Z,32.00
2018-09-04T14:44:44.665Z,30.60
2018-09-04T14:49:49.674Z,30.00
2018-09-04T14:54:55.702Z,29.70
2018-09-04T15:00:00.716Z,28.90
2018-09-04T15:05:05.599Z,28.60
2018-09-04T15:10:10.540Z,28.90
2018-09-04T15:15:16.878Z,29.20
2018-09-04T15:20:22.040Z,30.40
2018-09-04T15:25:27.106Z,31.20
2018-09-04T15:30:32.141Z,31.50
2018-09-04T15:35:37.086Z,31.10
2018-09-04T15:40:42.125Z,30.90
2018-09-04T15:45:47.097Z,30.40
2018-09-04T15:50:52.053Z,30.50
2018-09-04T15:55:57.140Z,31.50
2018-09-04T16:01:02.029Z,31.30
2018-09-04T16:06:06.956Z,31.50
2018-09-04T16:11:11.828Z,30.80
2018-09-04T16:16:17.101Z,31.40
2018-09-04T16:21:22.131Z,31.00
2018-09-04T16:26:27.372Z,30.40
2018-09-04T16:31:32.344Z,29.60
2018-09-04T16:36:37.394Z,29.20
2018-09-04T16:41:43.477Z,28.50
2018-09-04T16:46:48.393Z,28.00
2018-09-04T16:51:53.343Z,28.00
2018-09-04T16:56:58.491Z,28.10
2018-09-04T17:02:03.409Z,27.70
2018-09-04T17:07:08.373Z,27.40
2018-09-04T17:12:13.315Z,27.30
2018-09-04T17:17:19.677Z,27.60
2018-09-04T17:22:24.578Z,28.10
2018-09-04T17:27:29.436Z,28.30
2018-09-04T17:32:34.374Z,27.90
2018-09-04T17:37:39.541Z,27.60
2018-09-04T17:42:44.494Z,27.10
2018-09-04T17:47:49.593Z,26.40
2018-09-04T17:52:55.211Z,26.10
2018-09-04T17:58:00.262Z,26.10
2018-09-04T18:03:05.387Z,25.80
2018-09-04T18:08:10.385Z,25.70
2018-09-04T18:13:15.235Z,25.50
2018-09-04T18:18:20.252Z,25.50
2018-09-04T18:23:26.491Z,25.60
2018-09-04T18:28:31.389Z,25.60
2018-09-04T18:33:36.406Z,25.60
2018-09-04T18:38:41.518Z,25.60
2018-09-04T18:43:46.388Z,25.70
2018-09-04T18:48:54.890Z,25.40
2018-09-04T18:53:59.864Z,25.30
2018-09-04T18:59:04.734Z,25.40
2018-09-04T19:04:10.241Z,25.30
2018-09-04T19:09:15.205Z,25.30
2018-09-04T19:14:20.209Z,25.30
2018-09-04T19:19:25.316Z,25.30
2018-09-04T19:24:30.386Z,25.10
2018-09-04T19:29:35.404Z,25.00
2018-09-04T19:34:40.480Z,24.90
2018-09-04T19:39:47.377Z,25.00
2018-09-04T19:44:52.869Z,24.90
2018-09-04T19:49:57.915Z,24.80
2018-09-04T19:55:02.904Z,24.80
2018-09-04T20:00:13.216Z,24.70
2018-09-04T20:05:18.367Z,24.80
2018-09-04T20:10:23.415Z,24.80
2018-09-04T20:15:29.406Z,24.70
2018-09-04T20:20:35.489Z,24.50
2018-09-04T20:25:40.629Z,24.30
2018-09-04T20:30:46.613Z,24.20
2018-09-04T20:35:51.770Z,24.10
2018-09-04T20:40:56.824Z,23.90
2018-09-04T20:46:02.417Z,23.90
2018-09-04T20:51:07.663Z,23.80
2018-09-04T20:56:12.969Z,23.70
2018-09-04T21:01:28.721Z,23.50
2018-09-04T21:07:04.683Z,23.40
2018-09-04T21:12:10.268Z,23.30
2018-09-04T21:17:18.443Z,23.30
2018-09-04T21:22:24.179Z,23.20
2018-09-04T21:27:29.133Z,23.20
2018-09-04T21:32:34.791Z,23.10
2018-09-04T21:37:39.916Z,23.10
2018-09-04T21:42:45.378Z,23.10
2018-09-04T21:47:52.329Z,23.10
2018-09-04T21:52:57.268Z,23.00
2018-09-04T21:58:02.250Z,23.10
2018-09-04T22:03:09.469Z,23.00
2018-09-04T22:08:16.298Z,22.80
2018-09-04T22:13:21.249Z,23.00
2018-09-04T22:18:26.783Z,23.00
2018-09-04T22:23:32.063Z,22.90
2018-09-04T22:28:37.680Z,22.90
2018-09-04T22:33:42.627Z,22.80
2018-09-04T22:38:47.691Z,22.70
2018-09-04T22:43:52.561Z,22.70
2018-09-04T22:48:57.444Z,22.80
2018-09-04T22:54:03.287Z,23.00
2018-09-04T22:59:08.291Z,22.90
2018-09-04T23:04:14.322Z,23.00
2018-09-04T23:09:22.029Z,23.10
2018-09-04T23:14:27.855Z,23.10
2018-09-04T23:19:32.776Z,23.10
2018-09-04T23:24:38.353Z,23.10
2018-09-04T23:29:43.492Z,23.00
2018-09-04T23:34:48.798Z,22.80
2018-09-04T23:39:53.670Z,22.80
2018-09-04T23:44:59.329Z,22.80
2018-09-04T23:50:04.330Z,22.70
2018-09-04T23:55:09.557Z,22.80
